Hauptseite
METAR-TAF:

METAR-TAF

Flughäfen :

Fliegerhorst Diepholz

Diepholz, Deutschland

Breite: 52-35N, Länge: 008-21E, Höhe: 39 m

Beobachtung

Neuester Wetterbericht von vor 22 Stunden und 31 Minuten, um 09:20 UTC
Wind 17 kt aus Südwest, Böen bis zu 27 kt
Temperatur 22°C
Luftfeuchtigkeit 53%
Luftdruck 1001 hPa
Sichtweite 10 km oder mehr
Aufgelockert bewölkt in der Höhe von 4500 ft
Durchbrochene Bewölkung in der Höhe von 10000 ft
Geschlossene Wolkendecke in der Höhe von 18000 ft
Leichtregen

METAR: ETND 210920Z 23017G27KT 9999 -RA SCT045 BKN100 OVC180 22/12 Q1001 BLU

Zeit: 09:51 (07:51 UTC)


TAF: fehlend

Wetterbeobachtungen und Prognosen von mehr als 4000 Flughäfen (METAR und TAF Bericht).

Die verfügbaren Stationen werden durch gelbe und rote Markierungen auf der Karte dargestellt.

Führen Sie die Maus auf sie, um den Namen der Station zu sehen.

Darauf klicken, um die Beobachtung von Wetterbeobachtungen und Prognosen zu sehen.

Um die Karte zu ändern : klicken Sie auf den grünen Tasten mit einem schwarzen Kreuz Zum Vergrößern, auf den grünen Button mit einem Gedankenstrich zu verkleinern, oder auf die grünen Pfeile für benachbarte Karten.


METAR-TAF: